sensor_id;sensor_type;location;lat;lon;timestamp;pressure;altitude;pressure_sealevel;temperature;humidity
11172;BME280;5642;50.830;12.082;2023-04-05T00:01:57;100289.44;;;2.79;39.91
11172;BME280;5642;50.830;12.082;2023-04-05T00:04:23;100287.63;;;2.70;39.95
11172;BME280;5642;50.830;12.082;2023-04-05T00:06:52;100290.13;;;2.65;40.29
11172;BME280;5642;50.830;12.082;2023-04-05T00:09:19;100289.19;;;2.60;40.14
11172;BME280;5642;50.830;12.082;2023-04-05T00:11:46;100280.59;;;2.61;40.11
11172;BME280;5642;50.830;12.082;2023-04-05T00:14:13;100280.59;;;2.61;40.40
11172;BME280;5642;50.830;12.082;2023-04-05T00:16:39;100283.22;;;2.63;40.41
11172;BME280;5642;50.830;12.082;2023-04-05T00:19:05;100279.84;;;2.70;40.28
11172;BME280;5642;50.830;12.082;2023-04-05T00:21:32;100273.88;;;2.74;39.97
11172;BME280;5642;50.830;12.082;2023-04-05T00:23:58;100273.03;;;2.77;40.04
11172;BME280;5642;50.830;12.082;2023-04-05T00:26:25;100274.81;;;2.81;39.77
11172;BME280;5642;50.830;12.082;2023-04-05T00:28:52;100281.69;;;2.80;39.87
11172;BME280;5642;50.830;12.082;2023-04-05T00:31:18;100257.44;;;2.72;39.99
11172;BME280;5642;50.830;12.082;2023-04-05T00:33:44;100260.06;;;2.73;39.86
11172;BME280;5642;50.830;12.082;2023-04-05T00:36:19;100268.72;;;2.75;40.05
11172;BME280;5642;50.830;12.082;2023-04-05T00:38:47;100274.00;;;2.83;40.12
11172;BME280;5642;50.830;12.082;2023-04-05T00:41:15;100274.88;;;2.84;39.55
11172;BME280;5642;50.830;12.082;2023-04-05T00:43:46;100267.94;;;2.83;39.81
11172;BME280;5642;50.830;12.082;2023-04-05T00:46:12;100261.03;;;2.82;40.01
11172;BME280;5642;50.830;12.082;2023-04-05T00:48:38;100261.94;;;2.84;40.17
11172;BME280;5642;50.830;12.082;2023-04-05T00:51:04;100254.16;;;2.84;39.81
11172;BME280;5642;50.830;12.082;2023-04-05T00:53:34;100235.97;;;2.79;39.82
11172;BME280;5642;50.830;12.082;2023-04-05T00:56:02;100257.78;;;2.96;39.78
11172;BME280;5642;50.830;12.082;2023-04-05T00:58:29;100252.66;;;3.01;39.77
11172;BME280;5642;50.830;12.082;2023-04-05T01:01:18;100251.94;;;3.14;39.78
11172;BME280;5642;50.830;12.082;2023-04-05T01:03:49;100257.19;;;3.20;39.59
11172;BME280;5642;50.830;12.082;2023-04-05T01:06:43;100252.97;;;3.28;39.29
11172;BME280;5642;50.830;12.082;2023-04-05T01:12:14;100246.22;;;3.41;39.26
11172;BME280;5642;50.830;12.082;2023-04-05T01:14:54;100248.00;;;3.46;39.59
11172;BME280;5642;50.830;12.082;2023-04-05T01:17:23;100245.41;;;3.46;39.77
11172;BME280;5642;50.830;12.082;2023-04-05T01:19:58;100244.56;;;3.47;39.18
11172;BME280;5642;50.830;12.082;2023-04-05T01:31:55;100241.97;;;3.47;39.36
11172;BME280;5642;50.830;12.082;2023-04-05T01:35:00;100229.00;;;3.46;39.31
11172;BME280;5642;50.830;12.082;2023-04-05T01:37:29;100237.56;;;3.42;39.82
11172;BME280;5642;50.830;12.082;2023-04-05T01:39:59;100217.72;;;3.39;39.97
11172;BME280;5642;50.830;12.082;2023-04-05T01:42:30;100225.50;;;3.42;39.41
11172;BME280;5642;50.830;12.082;2023-04-05T01:44:57;100219.50;;;3.46;39.46
11172;BME280;5642;50.830;12.082;2023-04-05T01:47:25;100216.06;;;3.47;39.57
11172;BME280;5642;50.830;12.082;2023-04-05T01:49:51;100210.88;;;3.49;39.84
11172;BME280;5642;50.830;12.082;2023-04-05T01:52:17;100213.50;;;3.50;39.82
11172;BME280;5642;50.830;12.082;2023-04-05T01:54:44;100223.03;;;3.56;39.83
11172;BME280;5642;50.830;12.082;2023-04-05T01:57:11;100224.75;;;3.55;40.17
11172;BME280;5642;50.830;12.082;2023-04-05T01:59:39;100225.63;;;3.56;39.59
11172;BME280;5642;50.830;12.082;2023-04-05T02:02:07;100218.72;;;3.57;39.26
11172;BME280;5642;50.830;12.082;2023-04-05T02:04:34;100201.41;;;3.51;39.65
11172;BME280;5642;50.830;12.082;2023-04-05T02:07:01;100215.38;;;3.67;39.22
11172;BME280;5642;50.830;12.082;2023-04-05T02:09:29;100204.19;;;3.72;39.68
11172;BME280;5642;50.830;12.082;2023-04-05T02:11:57;100190.44;;;3.76;40.02
11172;BME280;5642;50.830;12.082;2023-04-05T02:14:24;100208.66;;;3.88;39.46
11172;BME280;5642;50.830;12.082;2023-04-05T02:16:51;100205.19;;;3.91;39.00
11172;BME280;5642;50.830;12.082;2023-04-05T02:19:24;100206.06;;;3.88;39.20
11172;BME280;5642;50.830;12.082;2023-04-05T02:21:56;100199.16;;;3.87;39.20
11172;BME280;5642;50.830;12.082;2023-04-05T02:24:23;100194.81;;;3.86;39.40
11172;BME280;5642;50.830;12.082;2023-04-05T02:26:52;100204.31;;;3.87;39.15
11172;BME280;5642;50.830;12.082;2023-04-05T02:29:19;100207.84;;;3.96;39.73
11172;BME280;5642;50.830;12.082;2023-04-05T02:31:45;100204.44;;;4.01;39.32
11172;BME280;5642;50.830;12.082;2023-04-05T02:34:12;100207.97;;;4.11;39.23
11172;BME280;5642;50.830;12.082;2023-04-05T02:36:38;100192.41;;;4.09;39.50
11172;BME280;5642;50.830;12.082;2023-04-05T02:39:08;100195.03;;;4.20;39.67
11172;BME280;5642;50.830;12.082;2023-04-05T02:41:35;100211.50;;;4.26;39.32
11172;BME280;5642;50.830;12.082;2023-04-05T02:44:03;100200.28;;;4.27;39.12
11172;BME280;5642;50.830;12.082;2023-04-05T02:46:30;100196.00;;;4.32;39.35
11172;BME280;5642;50.830;12.082;2023-04-05T02:48:57;100202.97;;;4.40;39.36
11172;BME280;5642;50.830;12.082;2023-04-05T02:51:25;100205.63;;;4.47;39.36
11172;BME280;5642;50.830;12.082;2023-04-05T02:53:53;100198.66;;;4.48;39.02
11172;BME280;5642;50.830;12.082;2023-04-05T02:56:19;100203.03;;;4.52;39.55
11172;BME280;5642;50.830;12.082;2023-04-05T02:58:50;100200.44;;;4.50;39.57
11172;BME280;5642;50.830;12.082;2023-04-05T03:01:16;100206.50;;;4.54;39.33
11172;BME280;5642;50.830;12.082;2023-04-05T03:03:42;100192.66;;;4.55;39.52
11172;BME280;5642;50.830;12.082;2023-04-05T03:06:09;100201.31;;;4.55;39.53
11172;BME280;5642;50.830;12.082;2023-04-05T03:08:40;100192.66;;;4.56;39.57
11172;BME280;5642;50.830;12.082;2023-04-05T03:11:10;100187.44;;;4.50;39.17
11172;BME280;5642;50.830;12.082;2023-04-05T03:13:36;100193.47;;;4.48;39.84
11172;BME280;5642;50.830;12.082;2023-04-05T03:16:03;100190.84;;;4.39;39.45
11172;BME280;5642;50.830;12.082;2023-04-05T03:18:29;100190.81;;;4.31;39.77
11172;BME280;5642;50.830;12.082;2023-04-05T03:20:56;100190.81;;;4.32;39.73
11172;BME280;5642;50.830;12.082;2023-04-05T03:23:27;100189.06;;;4.30;39.64
11172;BME280;5642;50.830;12.082;2023-04-05T03:26:02;100183.00;;;4.29;40.15
11172;BME280;5642;50.830;12.082;2023-04-05T03:28:30;100187.31;;;4.24;40.16
11172;BME280;5642;50.830;12.082;2023-04-05T03:31:00;100194.22;;;4.22;39.91
11172;BME280;5642;50.830;12.082;2023-04-05T03:33:27;100191.59;;;4.18;39.92
11172;BME280;5642;50.830;12.082;2023-04-05T03:35:56;100193.31;;;4.16;39.61
11172;BME280;5642;50.830;12.082;2023-04-05T03:38:23;100195.03;;;4.17;39.62
11172;BME280;5642;50.830;12.082;2023-04-05T03:40:51;100188.13;;;4.16;39.62
11172;BME280;5642;50.830;12.082;2023-04-05T03:43:17;100192.44;;;4.17;39.46
11172;BME280;5642;50.830;12.082;2023-04-05T03:45:44;100184.63;;;4.14;39.97
11172;BME280;5642;50.830;12.082;2023-04-05T03:48:12;100176.00;;;4.10;39.75
11172;BME280;5642;50.830;12.082;2023-04-05T03:50:38;100195.03;;;4.20;39.34
11172;BME280;5642;50.830;12.082;2023-04-05T03:53:07;100196.81;;;4.24;40.06
11172;BME280;5642;50.830;12.082;2023-04-05T03:55:34;100187.34;;;4.26;39.43
11172;BME280;5642;50.830;12.082;2023-04-05T03:58:00;100193.38;;;4.29;39.99
11172;BME280;5642;50.830;12.082;2023-04-05T04:00:27;100201.19;;;4.32;39.96
11172;BME280;5642;50.830;12.082;2023-04-05T04:02:54;100189.97;;;4.37;39.58
11172;BME280;5642;50.830;12.082;2023-04-05T04:05:20;100198.69;;;4.46;39.50
11172;BME280;5642;50.830;12.082;2023-04-05T04:07:47;100196.09;;;4.49;39.61
11172;BME280;5642;50.830;12.082;2023-04-05T04:10:15;100205.63;;;4.52;39.70
11172;BME280;5642;50.830;12.082;2023-04-05T04:12:47;100208.19;;;4.46;39.31
11172;BME280;5642;50.830;12.082;2023-04-05T04:15:13;100197.75;;;4.35;39.80
11172;BME280;5642;50.830;12.082;2023-04-05T04:17:43;100201.16;;;4.29;39.09
11172;BME280;5642;50.830;12.082;2023-04-05T04:20:09;100204.63;;;4.25;39.45
11172;BME280;5642;50.830;12.082;2023-04-05T04:22:37;100200.25;;;4.18;39.10
11172;BME280;5642;50.830;12.082;2023-04-05T04:25:09;100194.16;;;4.15;39.69
11172;BME280;5642;50.830;12.082;2023-04-05T04:27:37;100206.22;;;4.08;39.64
11172;BME280;5642;50.830;12.082;2023-04-05T04:30:08;100193.13;;;3.93;39.91
11172;BME280;5642;50.830;12.082;2023-04-05T04:32:37;100203.47;;;3.91;40.04
11172;BME280;5642;50.830;12.082;2023-04-05T04:35:22;100192.19;;;3.82;40.29
11172;BME280;5642;50.830;12.082;2023-04-05T04:37:56;100204.22;;;3.77;39.90
11172;BME280;5642;50.830;12.082;2023-04-05T04:40:27;100204.19;;;3.72;40.44
11172;BME280;5642;50.830;12.082;2023-04-05T04:42:55;100199.78;;;3.61;40.31
11172;BME280;5642;50.830;12.082;2023-04-05T04:45:23;100200.59;;;3.58;40.02
11172;BME280;5642;50.830;12.082;2023-04-05T04:47:52;100176.28;;;3.41;39.86
11172;BME280;5642;50.830;12.082;2023-04-05T04:50:20;100196.28;;;3.54;40.48
11172;BME280;5642;50.830;12.082;2023-04-05T04:52:46;100204.91;;;3.56;40.56
11172;BME280;5642;50.830;12.082;2023-04-05T04:55:13;100187.63;;;3.53;39.95
11172;BME280;5642;50.830;12.082;2023-04-05T04:57:40;100198.91;;;3.59;40.40
11172;BME280;5642;50.830;12.082;2023-04-05T05:00:09;100198.91;;;3.60;40.14
11172;BME280;5642;50.830;12.082;2023-04-05T05:02:41;100199.75;;;3.59;39.94
11172;BME280;5642;50.830;12.082;2023-04-05T05:05:08;100201.50;;;3.60;40.32
11172;BME280;5642;50.830;12.082;2023-04-05T05:07:35;100185.00;;;3.47;40.36
11172;BME280;5642;50.830;12.082;2023-04-05T05:10:02;100195.47;;;3.61;39.76
11172;BME280;5642;50.830;12.082;2023-04-05T05:12:29;100196.34;;;3.65;39.69
11172;BME280;5642;50.830;12.082;2023-04-05T05:14:56;100199.00;;;3.71;40.05
11172;BME280;5642;50.830;12.082;2023-04-05T05:17:22;100202.50;;;3.76;39.92
11172;BME280;5642;50.830;12.082;2023-04-05T05:19:49;100202.56;;;3.82;39.72
11172;BME280;5642;50.830;12.082;2023-04-05T05:22:16;100201.66;;;3.80;39.54
11172;BME280;5642;50.830;12.082;2023-04-05T05:24:43;100208.56;;;3.79;39.97
11172;BME280;5642;50.830;12.082;2023-04-05T05:27:10;100182.66;;;3.76;39.56
11172;BME280;5642;50.830;12.082;2023-04-05T05:29:37;100200.88;;;3.91;40.20
11172;BME280;5642;50.830;12.082;2023-04-05T05:32:04;100194.91;;;3.99;39.64
11172;BME280;5642;50.830;12.082;2023-04-05T05:34:32;100197.59;;;4.14;39.36
11172;BME280;5642;50.830;12.082;2023-04-05T05:36:58;100205.44;;;4.21;39.71
11172;BME280;5642;50.830;12.082;2023-04-05T05:39:24;100200.28;;;4.27;39.29
11172;BME280;5642;50.830;12.082;2023-04-05T05:41:51;100194.31;;;4.39;40.00
11172;BME280;5642;50.830;12.082;2023-04-05T05:44:17;100202.13;;;4.45;39.44
11172;BME280;5642;50.830;12.082;2023-04-05T05:46:43;100194.34;;;4.48;39.54
11172;BME280;5642;50.830;12.082;2023-04-05T05:49:09;100198.66;;;4.48;39.97
11172;BME280;5642;50.830;12.082;2023-04-05T05:51:36;100205.63;;;4.50;39.76
11172;BME280;5642;50.830;12.082;2023-04-05T05:54:02;100195.28;;;4.53;39.77
11172;BME280;5642;50.830;12.082;2023-04-05T05:56:29;100190.97;;;4.60;39.44
11172;BME280;5642;50.830;12.082;2023-04-05T05:58:55;100195.38;;;4.78;39.84
11172;BME280;5642;50.830;12.082;2023-04-05T06:01:21;100174.78;;;5.43;38.79
11172;BME280;5642;50.830;12.082;2023-04-05T06:03:53;100186.03;;;6.53;37.58
11172;BME280;5642;50.830;12.082;2023-04-05T06:06:22;100165.59;;;7.44;36.37
11172;BME280;5642;50.830;12.082;2023-04-05T06:08:48;100175.31;;;8.28;36.12
11172;BME280;5642;50.830;12.082;2023-04-05T06:11:19;100173.31;;;8.56;35.61
11172;BME280;5642;50.830;12.082;2023-04-05T06:13:46;100180.28;;;8.55;35.74
11172;BME280;5642;50.830;12.082;2023-04-05T06:16:12;100183.66;;;8.65;36.42
11172;BME280;5642;50.830;12.082;2023-04-05T06:18:38;100174.00;;;9.37;35.20
11172;BME280;5642;50.830;12.082;2023-04-05T06:21:05;100171.44;;;10.40;34.87
11172;BME280;5642;50.830;12.082;2023-04-05T06:23:31;100165.47;;;11.18;34.56
11172;BME280;5642;50.830;12.082;2023-04-05T06:25:59;100159.91;;;11.69;34.05
11172;BME280;5642;50.830;12.082;2023-04-05T06:28:25;100167.22;;;12.27;34.15
11172;BME280;5642;50.830;12.082;2023-04-05T06:30:53;100161.94;;;12.60;33.52
11172;BME280;5642;50.830;12.082;2023-04-05T06:33:19;100157.66;;;12.57;34.14
11172;BME280;5642;50.830;12.082;2023-04-05T06:35:47;100161.38;;;12.50;34.16
11172;BME280;5642;50.830;12.082;2023-04-05T06:38:14;100164.34;;;12.36;34.62
11172;BME280;5642;50.830;12.082;2023-04-05T06:40:41;100157.81;;;12.19;34.54
11172;BME280;5642;50.830;12.082;2023-04-05T06:43:08;100159.66;;;12.15;35.02
11172;BME280;5642;50.830;12.082;2023-04-05T06:45:38;100142.28;;;12.09;35.08
11172;BME280;5642;50.830;12.082;2023-04-05T06:48:06;100100.78;;;11.91;35.27
11172;BME280;5642;50.830;12.082;2023-04-05T06:50:33;100164.84;;;12.81;34.76
11172;BME280;5642;50.830;12.082;2023-04-05T06:53:09;100134.53;;;13.28;34.64
11172;BME280;5642;50.830;12.082;2023-04-05T06:55:40;100102.63;;;13.65;34.36
11172;BME280;5642;50.830;12.082;2023-04-05T06:58:07;100156.00;;;14.96;33.87
11172;BME280;5642;50.830;12.082;2023-04-05T07:00:33;100136.44;;;16.11;33.41
11172;BME280;5642;50.830;12.082;2023-04-05T07:02:59;100128.88;;;17.20;33.04
11172;BME280;5642;50.830;12.082;2023-04-05T07:05:25;100133.66;;;18.37;32.38
11172;BME280;5642;50.830;12.082;2023-04-05T07:07:51;100138.91;;;19.53;32.17
11172;BME280;5642;50.830;12.082;2023-04-05T07:10:18;100137.31;;;20.54;31.73
11172;BME280;5642;50.830;12.082;2023-04-05T07:12:44;100131.69;;;21.44;31.42
11172;BME280;5642;50.830;12.082;2023-04-05T07:15:10;100122.25;;;22.32;31.37
11172;BME280;5642;50.830;12.082;2023-04-05T07:17:38;100111.44;;;23.22;31.05
11172;BME280;5642;50.830;12.082;2023-04-05T07:20:07;100125.84;;;24.03;30.55
11172;BME280;5642;50.830;12.082;2023-04-05T07:22:34;100106.19;;;24.62;30.79
11172;BME280;5642;50.830;12.082;2023-04-05T07:25:00;100100.72;;;25.19;30.44
11172;BME280;5642;50.830;12.082;2023-04-05T07:27:28;100106.13;;;25.62;30.33
11172;BME280;5642;50.830;12.082;2023-04-05T07:29:55;100108.41;;;25.98;30.06
11172;BME280;5642;50.830;12.082;2023-04-05T07:32:22;100098.38;;;26.32;29.77
11172;BME280;5642;50.830;12.082;2023-04-05T07:34:48;100116.25;;;26.64;29.75
11172;BME280;5642;50.830;12.082;2023-04-05T07:37:14;100102.44;;;26.78;29.91
11172;BME280;5642;50.830;12.082;2023-04-05T07:39:40;100083.53;;;26.59;29.86
11172;BME280;5642;50.830;12.082;2023-04-05T07:42:06;100105.56;;;26.32;30.20
11172;BME280;5642;50.830;12.082;2023-04-05T07:44:33;100106.94;;;25.73;30.22
11172;BME280;5642;50.830;12.082;2023-04-05T07:46:59;100108.38;;;25.23;30.71
11172;BME280;5642;50.830;12.082;2023-04-05T07:49:25;100107.38;;;24.80;30.55
11172;BME280;5642;50.830;12.082;2023-04-05T07:51:56;100108.25;;;24.69;30.43
11172;BME280;5642;50.830;12.082;2023-04-05T07:54:22;100093.66;;;24.84;30.64
11172;BME280;5642;50.830;12.082;2023-04-05T07:56:50;100101.69;;;25.29;30.35
11172;BME280;5642;50.830;12.082;2023-04-05T07:59:16;100104.97;;;25.76;30.37
11172;BME280;5642;50.830;12.082;2023-04-05T08:01:42;100102.84;;;26.11;29.91
11172;BME280;5642;50.830;12.082;2023-04-05T08:04:08;100102.53;;;26.67;29.98
11172;BME280;5642;50.830;12.082;2023-04-05T08:06:34;100095.25;;;27.18;29.71
11172;BME280;5642;50.830;12.082;2023-04-05T08:09:02;100105.44;;;27.74;29.51
11172;BME280;5642;50.830;12.082;2023-04-05T08:11:31;100089.59;;;28.19;29.07
11172;BME280;5642;50.830;12.082;2023-04-05T08:13:57;100088.19;;;28.62;29.45
11172;BME280;5642;50.830;12.082;2023-04-05T08:16:24;100087.16;;;29.09;28.83
11172;BME280;5642;50.830;12.082;2023-04-05T08:18:51;100085.19;;;29.39;29.22
11172;BME280;5642;50.830;12.082;2023-04-05T08:21:17;100088.75;;;29.75;28.54
11172;BME280;5642;50.830;12.082;2023-04-05T08:23:43;100078.78;;;30.11;28.70
11172;BME280;5642;50.830;12.082;2023-04-05T08:26:09;100070.44;;;30.48;28.34
11172;BME280;5642;50.830;12.082;2023-04-05T08:28:37;100069.72;;;30.97;28.30
11172;BME280;5642;50.830;12.082;2023-04-05T08:31:10;100073.25;;;31.32;28.31
11172;BME280;5642;50.830;12.082;2023-04-05T08:33:37;100071.13;;;31.68;28.11
11172;BME280;5642;50.830;12.082;2023-04-05T08:36:04;100071.34;;;32.15;27.97
11172;BME280;5642;50.830;12.082;2023-04-05T08:38:30;100059.94;;;32.44;28.12
11172;BME280;5642;50.830;12.082;2023-04-05T08:41:05;100047.34;;;32.75;27.78
11172;BME280;5642;50.830;12.082;2023-04-05T08:45:59;100046.13;;;33.25;27.59
11172;BME280;5642;50.830;12.082;2023-04-05T08:48:26;100066.06;;;33.63;27.25
11172;BME280;5642;50.830;12.082;2023-04-05T08:50:56;100070.91;;;33.98;26.96
11172;BME280;5642;50.830;12.082;2023-04-05T08:53:22;100051.72;;;34.37;27.17
11172;BME280;5642;50.830;12.082;2023-04-05T08:55:50;100049.41;;;34.78;26.57
11172;BME280;5642;50.830;12.082;2023-04-05T08:58:23;100052.44;;;35.05;26.52
11172;BME280;5642;50.830;12.082;2023-04-05T09:00:51;100057.22;;;35.32;26.70
11172;BME280;5642;50.830;12.082;2023-04-05T09:03:21;100056.25;;;35.61;26.28
11172;BME280;5642;50.830;12.082;2023-04-05T09:05:50;100053.13;;;36.00;25.90
11172;BME280;5642;50.830;12.082;2023-04-05T09:08:18;100052.34;;;36.34;25.96
11172;BME280;5642;50.830;12.082;2023-04-05T09:10:48;100054.75;;;36.43;25.56
11172;BME280;5642;50.830;12.082;2023-04-05T09:13:16;100048.66;;;36.48;25.99
11172;BME280;5642;50.830;12.082;2023-04-05T09:15:42;100052.81;;;36.65;25.68
11172;BME280;5642;50.830;12.082;2023-04-05T09:18:09;100041.66;;;37.01;25.69
11172;BME280;5642;50.830;12.082;2023-04-05T09:20:36;100041.78;;;37.34;25.56
11172;BME280;5642;50.830;12.082;2023-04-05T09:23:02;100015.94;;;37.43;25.03
11172;BME280;5642;50.830;12.082;2023-04-05T09:25:32;100029.84;;;37.55;25.23
11172;BME280;5642;50.830;12.082;2023-04-05T09:27:59;100040.09;;;37.33;25.02
11172;BME280;5642;50.830;12.082;2023-04-05T09:30:26;100029.59;;;37.37;25.01
11172;BME280;5642;50.830;12.082;2023-04-05T09:32:54;100024.63;;;37.73;24.99
11172;BME280;5642;50.830;12.082;2023-04-05T09:35:22;100030.13;;;37.93;24.93
11172;BME280;5642;50.830;12.082;2023-04-05T09:37:54;100031.16;;;37.85;24.90
11172;BME280;5642;50.830;12.082;2023-04-05T09:40:21;100024.41;;;37.81;24.45
11172;BME280;5642;50.830;12.082;2023-04-05T09:42:48;100038.22;;;37.40;24.74
11172;BME280;5642;50.830;12.082;2023-04-05T09:45:15;100034.75;;;36.36;24.67
11172;BME280;5642;50.830;12.082;2023-04-05T09:47:53;100032.09;;;35.51;24.66
11172;BME280;5642;50.830;12.082;2023-04-05T09:50:20;100034.38;;;34.82;25.45
11172;BME280;5642;50.830;12.082;2023-04-05T09:52:46;100040.66;;;34.01;25.28
11172;BME280;5642;50.830;12.082;2023-04-05T09:55:25;100034.38;;;32.93;25.10
11172;BME280;5642;50.830;12.082;2023-04-05T09:57:52;100028.53;;;32.74;25.51
11172;BME280;5642;50.830;12.082;2023-04-05T10:00:21;100027.13;;;33.17;25.08
11172;BME280;5642;50.830;12.082;2023-04-05T10:02:52;100026.66;;;33.67;24.58
11172;BME280;5642;50.830;12.082;2023-04-05T10:05:23;100022.09;;;34.19;24.50
11172;BME280;5642;50.830;12.082;2023-04-05T10:07:49;100024.88;;;34.64;24.61
11172;BME280;5642;50.830;12.082;2023-04-05T10:10:16;100031.38;;;34.77;24.77
11172;BME280;5642;50.830;12.082;2023-04-05T10:12:44;100021.22;;;34.71;24.61
11172;BME280;5642;50.830;12.082;2023-04-05T10:15:15;100024.00;;;35.07;24.69
11172;BME280;5642;50.830;12.082;2023-04-05T10:20:22;100017.84;;;36.20;23.97
11172;BME280;5642;50.830;12.082;2023-04-05T10:23:07;100016.53;;;36.78;23.43
11172;BME280;5642;50.830;12.082;2023-04-05T10:28:32;100003.13;;;36.90;23.33
11172;BME280;5642;50.830;12.082;2023-04-05T10:31:25;100014.25;;;37.29;22.92
11172;BME280;5642;50.830;12.082;2023-04-05T10:34:07;100005.22;;;37.35;23.05
11172;BME280;5642;50.830;12.082;2023-04-05T10:36:45;100010.66;;;36.81;23.45
11172;BME280;5642;50.830;12.082;2023-04-05T10:39:33;100014.31;;;35.77;23.51
11172;BME280;5642;50.830;12.082;2023-04-05T10:42:16;100006.22;;;34.46;23.37
11172;BME280;5642;50.830;12.082;2023-04-05T10:44:48;100015.09;;;33.11;23.35
11172;BME280;5642;50.830;12.082;2023-04-05T10:47:18;100011.34;;;31.69;23.28
11172;BME280;5642;50.830;12.082;2023-04-05T10:49:50;100001.91;;;30.31;23.61
11172;BME280;5642;50.830;12.082;2023-04-05T10:52:21;100007.09;;;29.10;23.96
11172;BME280;5642;50.830;12.082;2023-04-05T10:54:48;100021.53;;;27.79;23.78
11172;BME280;5642;50.830;12.082;2023-04-05T10:57:16;100015.91;;;26.54;24.43
11172;BME280;5642;50.830;12.082;2023-04-05T10:59:45;100019.75;;;25.36;24.38
11172;BME280;5642;50.830;12.082;2023-04-05T11:02:13;100010.59;;;24.29;24.30
11172;BME280;5642;50.830;12.082;2023-04-05T11:04:43;100017.81;;;23.34;24.35
11172;BME280;5642;50.830;12.082;2023-04-05T11:07:17;100016.09;;;22.60;24.51
11172;BME280;5642;50.830;12.082;2023-04-05T11:10:16;100018.34;;;21.91;24.47
11172;BME280;5642;50.830;12.082;2023-04-05T11:20:43;100012.94;;;19.85;24.68
11172;BME280;5642;50.830;12.082;2023-04-05T11:23:19;100021.09;;;19.37;24.69
11172;BME280;5642;50.830;12.082;2023-04-05T11:25:52;100018.41;;;18.91;24.62
11172;BME280;5642;50.830;12.082;2023-04-05T11:28:24;100011.53;;;18.56;24.73
11172;BME280;5642;50.830;12.082;2023-04-05T11:30:52;100013.03;;;18.44;24.46
11172;BME280;5642;50.830;12.082;2023-04-05T11:36:09;100009.44;;;18.45;24.56
11172;BME280;5642;50.830;12.082;2023-04-05T11:38:36;100001.41;;;18.47;24.34
11172;BME280;5642;50.830;12.082;2023-04-05T11:41:16;100003.09;;;18.32;24.13
11172;BME280;5642;50.830;12.082;2023-04-05T11:43:43;100007.75;;;18.11;24.30
11172;BME280;5642;50.830;12.082;2023-04-05T11:46:15;100011.41;;;18.09;24.20
11172;BME280;5642;50.830;12.082;2023-04-05T11:48:41;100003.38;;;18.10;24.06
11172;BME280;5642;50.830;12.082;2023-04-05T11:51:09;100001.22;;;18.01;24.14
11172;BME280;5642;50.830;12.082;2023-04-05T11:53:38;99991.00;;;17.93;24.30
11172;BME280;5642;50.830;12.082;2023-04-05T11:56:10;99992.13;;;17.89;24.07
11172;BME280;5642;50.830;12.082;2023-04-05T11:58:41;99998.34;;;17.71;24.13
11172;BME280;5642;50.830;12.082;2023-04-05T12:01:08;99993.63;;;17.42;24.21
11172;BME280;5642;50.830;12.082;2023-04-05T12:03:35;99996.72;;;17.15;24.51
11172;BME280;5642;50.830;12.082;2023-04-05T12:06:03;99997.34;;;17.03;24.65
11172;BME280;5642;50.830;12.082;2023-04-05T12:08:43;99996.06;;;16.93;24.23
11172;BME280;5642;50.830;12.082;2023-04-05T12:11:22;99995.06;;;16.77;24.68
11172;BME280;5642;50.830;12.082;2023-04-05T12:13:58;99993.00;;;16.65;24.31
11172;BME280;5642;50.830;12.082;2023-04-05T12:16:26;99990.63;;;16.59;24.49
11172;BME280;5642;50.830;12.082;2023-04-05T12:18:57;99991.44;;;16.79;24.32
11172;BME280;5642;50.830;12.082;2023-04-05T12:21:24;99989.97;;;16.91;24.33
11172;BME280;5642;50.830;12.082;2023-04-05T12:23:52;99984.09;;;17.03;24.16
11172;BME280;5642;50.830;12.082;2023-04-05T12:26:18;99990.66;;;17.13;24.10
11172;BME280;5642;50.830;12.082;2023-04-05T12:28:56;99982.31;;;17.21;24.19
11172;BME280;5642;50.830;12.082;2023-04-05T12:31:42;99981.72;;;17.16;24.12
11172;BME280;5642;50.830;12.082;2023-04-05T12:34:10;99979.00;;;17.17;24.08
11172;BME280;5642;50.830;12.082;2023-04-05T12:36:37;99976.47;;;17.14;24.10
11172;BME280;5642;50.830;12.082;2023-04-05T12:39:08;99974.94;;;17.10;23.95
11172;BME280;5642;50.830;12.082;2023-04-05T12:41:36;99980.16;;;17.12;24.19
11172;BME280;5642;50.830;12.082;2023-04-05T12:44:13;99966.13;;;17.10;23.80
11172;BME280;5642;50.830;12.082;2023-04-05T12:46:44;99961.47;;;17.15;24.11
11172;BME280;5642;50.830;12.082;2023-04-05T12:49:11;99960.59;;;17.14;24.28
11172;BME280;5642;50.830;12.082;2023-04-05T12:51:41;99958.25;;;17.08;24.04
11172;BME280;5642;50.830;12.082;2023-04-05T12:54:20;99946.50;;;16.97;24.07
11172;BME280;5642;50.830;12.082;2023-04-05T12:56:50;99960.28;;;17.03;24.10
11172;BME280;5642;50.830;12.082;2023-04-05T12:59:18;99957.78;;;17.00;24.17
11172;BME280;5642;50.830;12.082;2023-04-05T13:01:44;99962.22;;;17.00;24.14
11172;BME280;5642;50.830;12.082;2023-04-05T13:04:10;99954.56;;;16.94;24.28
11172;BME280;5642;50.830;12.082;2023-04-05T13:06:36;99950.06;;;16.96;24.19
11172;BME280;5642;50.830;12.082;2023-04-05T13:09:03;99954.75;;;16.91;24.19
11172;BME280;5642;50.830;12.082;2023-04-05T13:11:29;99954.69;;;16.73;24.26
11172;BME280;5642;50.830;12.082;2023-04-05T13:13:56;99946.66;;;16.56;24.14
11172;BME280;5642;50.830;12.082;2023-04-05T13:16:22;99948.97;;;16.45;24.37
11172;BME280;5642;50.830;12.082;2023-04-05T13:18:48;99955.25;;;16.42;24.33
11172;BME280;5642;50.830;12.082;2023-04-05T13:21:15;99949.38;;;16.36;24.43
11172;BME280;5642;50.830;12.082;2023-04-05T13:23:41;99937.75;;;16.40;24.22
11172;BME280;5642;50.830;12.082;2023-04-05T13:26:08;99938.59;;;16.40;24.37
11172;BME280;5642;50.830;12.082;2023-04-05T13:28:34;99942.13;;;16.41;24.20
11172;BME280;5642;50.830;12.082;2023-04-05T13:31:02;99924.31;;;16.44;24.24
11172;BME280;5642;50.830;12.082;2023-04-05T13:33:29;99924.22;;;16.46;24.03
11172;BME280;5642;50.830;12.082;2023-04-05T13:35:56;99934.09;;;16.42;23.95